Florid, Illinois
Current Conditions -  °F | °C
As of 9:15 AM on Thursday 23 Oct 2014 (Local Time) from KVYS Reporting Station
Clear Clear  
Wind Chill: 41°   Ceiling: Unl
Heat Index: 45°   Visibility: 10mi
Dew Point: 39°   Wind: 7mph
Humidity: 79%   Direction: 180°S
Pressure: 30.21"   Gusts: NA
Location:  41.2233°N, 89.3007°W
Report Text: KVYS 231415Z AUTO 18006KT 10SM CLR 07/04 A3021 RMK AO2 T00720037
Loading
Personal Weather Stations






























Interactive Weather Map
Tropical Storm Tracking
New forecast layout! Learn more

10-Day Weather Forecast

Advertisements
Track Severe Weather on mobile